Tiempo atmosférico en la estación meteorológica de Tornavacas, Cáceres (991 m.)



Fecha
DESCASC
Temp. máxima en grados centígrados (hora)
DESCASC
Temp. mínima en grados centígrados (hora)
DESCASC
Temp. media en grados centígrados
DESCASC
Racha de viento máxima en m/sg (hora)
DESCASC
Velocidad máxima media en intervalos de 10 minutos(hora)
DESCASC
Precipitaciones diarias en mm
DESCASC
Precipitaciones de 00:00 a 06:00 en mm
DESCASC
Precipitaciones de 06:00 a 12:00 en mm
DESCASC
Precipitaciones de 12:00 a 18:00 en mm
DESCASC
Precipitaciones de 18:00 a 24:00 en mm
DESCASC
26-11-2020 9.2 (05:40) 6.4 (15:20) 7.8 15.83 (07:50) 5.56 (04:00) 36.8 7.8 11.2 13.2 4.6
25-11-2020 9.3 (17:20) 7.1 (00:00) 8.2 21.39 (17:10) 10.56 (17:00) 6.6 0 0 2.6 4
24-11-2020 11.8 (12:20) 5.4 (20:20) 8.6 8.06 (15:20) 5.28 (15:20) 0 0 0 0 0
23-11-2020 15.2 (12:20) 6.8 (23:30) 11 9.17 (03:20) 6.39 (01:00) 0 0 0 0 0
22-11-2020 14.9 (15:10) 6.3 (00:00) 10.6 9.44 (23:20) 6.67 (23:30) 0 0 0 0 0
21-11-2020 16.5 (12:20) 6 (00:00) 11.3 13.06 (02:20) 10 (02:30) 0 0 0 0 0
20-11-2020 17.1 (15:00) 8.8 (00:00) 13 16.11 (08:20) 12.5 (08:30) 0 0 0 0 0
19-11-2020 20.2 (14:40) 12.4 (00:00) 16.3 12.78 (23:20) 8.33 (05:50) 0 0 0 0 0
18-11-2020 19.9 (12:50) 10.5 (00:00) 15.2 10.56 (23:50) 7.78 (23:50) 0 0 0 0 0
17-11-2020 17.8 (12:20) 8.6 (00:00) 13.2 5.83 (08:20) 3.33 (06:50) 0 0 0 0 0
16-11-2020 15.9 (15:20) 9.3 (00:00) 12.6 12.22 (08:00) 8.06 (08:10) 0.2 0 0.2 0 0
15-11-2020 13.3 (23:20) 10.6 (00:00) 12 8.89 (12:00) 6.39 (11:30) 9.2 2.8 5.8 0.6 0
14-11-2020 12.2 (13:40) 9.6 (00:00) 10.9 6.11 (19:40) 3.89 (19:30) 1.6 0 0.8 0 0.8
13-11-2020 13.1 (16:10) 7.6 (00:00) 10.4 9.44 (10:20) 6.11 (08:50) 0 0 0 0 0
12-11-2020 14.2 (16:40) 8.5 (00:00) 11.3 7.5 (05:20) 5.56 (05:30) 0 0 0 0 0
11-11-2020 15 (14:10) 7 (00:00) 11 9.17 (13:20) 6.11 (11:50) 0 0 0 0 0
10-11-2020 15.6 (15:30) 7.5 (00:00) 11.6 10.28 (06:20) 7.22 (01:00) 0 0 0 0 0
09-11-2020 13.3 (16:50) 8.5 (00:00) 10.9 7.78 (23:00) 5 (22:00) 0.2 0 0.2 0 0
08-11-2020 12 (14:10) 9.3 (00:00) 10.7 11.39 (03:10) 6.39 (03:20) 0 0 0 0 0
07-11-2020 11 (14:40) 8.6 (00:00) 9.8 10.56 (00:20) 6.39 (13:40) 37.8 30 7.8 0 0
06-11-2020 17.5 (11:50) 9.3 (00:00) 13.4 20.83 (19:50) 9.72 (20:00) 31.8 3.6 2.6 5.2 20.4
05-11-2020 13.4 (22:40) 8 (00:00) 10.7 17.22 (09:40) 7.5 (17:20) 63.6 9.6 25.6 22.4 6
04-11-2020 9.5 (00:00) 5.6 (00:00) 7.5 12.5 (16:30) 7.78 (12:00) 6 0 0 2.2 3.8
03-11-2020 14.5 (04:40) 9.5 (00:00) 12 15.56 (07:20) 8.89 (11:10) 0 0 0 0 0
02-11-2020 17.7 (15:10) 12.6 (00:00) 15.2 10 (21:20) 6.39 (11:10) 0 0 0 0 0
01-11-2020 18.9 (13:50) 11.1 (00:00) 15 9.17 (00:20) 5.83 (00:20) 0 0 0 0 0
31-10-2020 20.1 (15:20) 11.6 (00:00) 15.9 6.94 (22:30) 5 (23:30) 0 0 0 0 0
30-10-2020 19.9 (15:20) 10.6 (00:00) 15.3 5.28 (14:40) 3.89 (14:30) 0 0 0 0 0
29-10-2020 17.4 (15:20) 7 (00:00) 12.2 6.67 (01:10) 5 (01:10) 0 0 0 0 0
28-10-2020 13.2 (16:20) 7 (00:00) 10.1 6.39 (13:30) 4.17 (13:20) 1.2 0.2 0.8 0.2 0

Gráficas

Temp. máximas Temp. mínimas Temp. medias Precipitaciones Rachas de viento máximas Velocidades máximas media en intervalos de 10 minutos

Datos horarios

Fecha y hora oficial Temperatura (ºC) Velocidad del viento (km/h) Dirección del viento Racha (km/h) Dirección de racha Precipitación (mm) Presión (hPa) Tendencia (hPa) Humedad (%)
2020-11-26 23:00:00 6.5 3 Noroeste 9 Sudeste 0.8 -- -- 97
2020-11-26 22:00:00 6.5 3 Este 11 Sudoeste 1.4 -- -- 97
2020-11-26 21:00:00 6.8 5 Sudoeste 9 Sudoeste 0.6 -- -- 97
2020-11-26 20:00:00 6.8 4 Sur 23 Sudoeste 0.8 -- -- 96
2020-11-26 19:00:00 7.2 4 Nordeste 8 Sur 1 -- -- 93
2020-11-26 18:00:00 6.9 4 Nordeste 10 Nordeste 2.4 -- -- 95
2020-11-26 17:00:00 6.9 2 Noroeste 10 Sudeste 1.8 -- -- 95
2020-11-26 16:00:00 6.6 3 Norte 9 Sudeste 3 -- -- 95
2020-11-26 15:00:00 6.5 0 Calma 3 Noroeste 2.8 -- -- 93
2020-11-26 14:00:00 6.6 0 Calma 6 Sudeste 2.4 -- -- 92
2020-11-26 13:00:00 6.8 3 Nordeste 10 Oeste 0.8 -- -- 91
2020-11-26 12:00:00 7.3 6 Este 23 Norte 2 -- -- 87
2020-11-26 11:00:00 7.9 12 Nordeste 29 Nordeste 2 -- -- 80
2020-11-26 10:00:00 7.5 5 Nordeste 38 Noroeste 2.4 -- -- 83
2020-11-26 09:00:00 8.2 8 Sudeste 30 Sudeste 1.2 -- -- 75
2020-11-26 08:00:00 8.4 17 Sudeste 57 Sudeste 1.2 -- -- 78
2020-11-26 07:00:00 8.1 9 Noroeste 29 Sur 2.4 -- -- 83
2020-11-26 06:00:00 8.6 13 Oeste 27 Oeste 1.4 -- -- 83
2020-11-26 05:00:00 8.3 6 Nordeste 40 Oeste 1.6 -- -- 84
2020-11-26 04:00:00 8.5 20 Sudoeste 38 Sur 1 -- -- 79
2020-11-26 03:00:00 7.4 6 Noroeste 14 Noroeste 1 -- -- 87
2020-11-26 02:00:00 7.5 3 Sudeste 13 Este 1 -- -- 90
2020-11-26 01:00:00 7.6 6 Este 26 Oeste 1.8 -- -- 91
2020-11-26 00:00:00 7.7 13 Sudoeste 37 Sur 1 -- -- 93
2020-11-25 23:00:00 8.3 16 Sudoeste 50 Sudoeste 1.2 -- -- 90
2020-11-25 22:00:00 8.1 14 Sudoeste 25 Oeste 1 -- -- 93
2020-11-25 21:00:00 7.8 4 Sur 13 Sudeste 0.6 -- -- 93
2020-11-25 20:00:00 8.2 4 Sur 59 Oeste 0.2 -- -- 89
2020-11-25 19:00:00 9.1 14 Este 34 Nordeste 0 -- -- 79
2020-11-25 18:00:00 9.2 17 Norte 77 Sudoeste 0 -- -- 78
2020-11-25 17:00:00 9 38 Oeste 65 Oeste 0.8 -- -- 79
2020-11-25 16:00:00 7.6 12 Sudoeste 22 Sudoeste 0.6 -- -- 92
2020-11-25 15:00:00 7.7 15 Sudoeste 26 Sur 0.6 -- -- 89
2020-11-25 14:00:00 8.2 8 Sudoeste 26 Oeste 0.6 -- -- 84
2020-11-25 13:00:00 7.6 13 Sudoeste 26 Sudoeste 0 -- -- 89
2020-11-25 12:00:00 7.9 13 Sudoeste 27 Oeste 0 -- -- 88
2020-11-25 11:00:00 7.4 13 Sudoeste 27 Sudoeste 0 -- -- 87
2020-11-25 10:00:00 8.1 17 Sudoeste 30 Sudoeste 0 -- -- 79
2020-11-25 09:00:00 8.4 16 Oeste 29 Oeste 0 -- -- 77
2020-11-25 08:00:00 8.2 6 Sur 25 Noroeste 0 -- -- 77
2020-11-25 07:00:00 8.1 17 Oeste 35 Oeste 0 -- -- 78
2020-11-25 06:00:00 7.8 11 Sudoeste 18 Sur 0 -- -- 77
2020-11-25 05:00:00 7.1 7 Sudoeste 16 Sudoeste 0 -- -- 83
2020-11-25 04:00:00 7.8 9 Sudoeste 17 Sudoeste 0 -- -- 75
2020-11-25 03:00:00 7.6 14 Sudoeste 20 Sudoeste 0 -- -- 78
2020-11-25 02:00:00 7.7 11 Sudoeste 20 Sudoeste 0 -- -- 77
2020-11-25 01:00:00 7.6 11 Sudoeste 16 Sudoeste 0 -- -- 77
2020-11-25 00:00:00 7.1 8 Sudoeste 15 Sudoeste 0 -- -- 79
2020-11-24 23:00:00 7.6 8 Sudoeste 13 Sudoeste 0 -- -- 73
2020-11-24 22:00:00 6.9 4 Sur 9 Sudoeste 0 -- -- 77
2020-11-24 21:00:00 5.7 3 Sudoeste 5 Sudoeste 0 -- -- 83
2020-11-24 20:00:00 5.9 0 Calma 6 Sudoeste 0 -- -- 81
2020-11-24 19:00:00 6.9 3 Sur 14 Sur 0 -- -- 75
2020-11-24 18:00:00 8.8 6 Sudoeste 24 Sudoeste 0 -- -- 66
2020-11-24 17:00:00 10.3 13 Sudoeste 26 Sudoeste 0 -- -- 64
2020-11-24 16:00:00 11.5 15 Sudoeste 29 Sudoeste 0 -- -- 63
2020-11-24 15:00:00 11.7 15 Sudoeste 25 Sudoeste 0 -- -- 63
2020-11-24 14:00:00 11.5 14 Sudoeste 21 Sudoeste 0 -- -- 64
2020-11-24 13:00:00 11.1 13 Sudoeste 19 Sudoeste 0 -- -- 64
2020-11-24 12:00:00 11 6 Sudoeste 12 Sudoeste 0 -- -- 61
2020-11-24 11:00:00 10.3 4 Sudoeste 6 Sudoeste 0 -- -- 62
2020-11-24 10:00:00 7.2 3 Sudeste 9 Este 0 -- -- 73
2020-11-24 09:00:00 6.2 6 Este 10 Sudeste 0 -- -- 77
2020-11-24 08:00:00 6.2 4 Este 10 Este 0 -- -- 75
2020-11-24 07:00:00 6.1 7 Sudeste 10 Este 0 -- -- 71
2020-11-24 06:00:00 6.8 8 Sudeste 12 Sudeste 0 -- -- 65
2020-11-24 05:00:00 7 8 Sudeste 16 Sudeste 0 -- -- 62
2020-11-24 04:00:00 6.2 10 Sudeste 13 Sudeste 0 -- -- 65
2020-11-24 03:00:00 6.2 8 Sudeste 10 Este 0 -- -- 66
2020-11-24 02:00:00 6.1 9 Sudeste 13 Este 0 -- -- 70
2020-11-24 01:00:00 6.9 8 Sudeste 16 Este 0 -- -- 67
2020-11-24 00:00:00 7 7 Este 12 Sudeste 0 -- -- 67
2020-11-23 23:00:00 7.3 10 Sudeste 13 Este 0 -- -- 68
2020-11-23 22:00:00 6.9 7 Este 13 Sudeste 0 -- -- 74
2020-11-23 21:00:00 7.4 8 Sudeste 12 Sudeste 0 -- -- 69
2020-11-23 20:00:00 7.8 8 Sudeste 13 Sudeste 0 -- -- 70
2020-11-23 19:00:00 8.4 6 Sudeste 10 Sudeste 0 -- -- 70
2020-11-23 18:00:00 10.2 4 Este 6 Este 0 -- -- 70
2020-11-23 17:00:00 14.2 5 Sudoeste 11 Oeste 0 -- -- 57
2020-11-23 16:00:00 14.9 6 Sudoeste 14 Sudoeste 0 -- -- 52
2020-11-23 15:00:00 14.8 8 Sudoeste 12 Oeste 0 -- -- 42
2020-11-23 14:00:00 14.6 9 Sudoeste 11 Sudoeste 0 -- -- 42
2020-11-23 13:00:00 14.5 2 Sur 8 Oeste 0 -- -- 43
2020-11-23 12:00:00 14.7 0 Calma 7 Sudeste 0 -- -- 38
2020-11-23 11:00:00 12 5 Sudeste 14 Sudeste 0 -- -- 47
2020-11-23 10:00:00 8.2 10 Sudeste 13 Sudeste 0 -- -- 52
2020-11-23 09:00:00 7.7 10 Sudeste 14 Sudeste 0 -- -- 52
2020-11-23 08:00:00 7.7 9 Sudeste 22 Nordeste 0 -- -- 53
2020-11-23 07:00:00 7.1 8 Este 26 Nordeste 0 -- -- 57
2020-11-23 06:00:00 7.6 8 Este 30 Nordeste 0 -- -- 53
2020-11-23 05:00:00 7.7 8 Este 21 Nordeste 0 -- -- 52
2020-11-23 04:00:00 9.6 4 Sudeste 33 Nordeste 0 -- -- 48
2020-11-23 03:00:00 9.4 20 Nordeste 31 Nordeste 0 -- -- 48
2020-11-23 02:00:00 11.9 21 Nordeste 30 Nordeste 0 -- -- 45
2020-11-23 01:00:00 9.1 23 Nordeste 30 Nordeste 0 -- -- 52
2020-11-23 00:00:00 9.9 20 Nordeste 34 Nordeste 0 -- -- 50
2020-11-22 23:00:00 9.6 18 Nordeste 27 Nordeste 0 -- -- 53
2020-11-22 22:00:00 8 3 Sudeste 17 Este 0 -- -- 64
2020-11-22 21:00:00 6.8 8 Este 12 Sudeste 0 -- -- 78
2020-11-22 20:00:00 7.3 3 Sudeste 9 Este 0 -- -- 79
2020-11-22 19:00:00 8.3 4 Sudeste 7 Sudeste 0 -- -- 73
2020-11-22 18:00:00 10 2 Sudeste 5 Este 0 -- -- 66
2020-11-22 17:00:00 14.3 3 Sudoeste 9 Sudoeste 0 -- -- 52
2020-11-22 16:00:00 14.7 5 Sudoeste 11 Sudoeste 0 -- -- 49
2020-11-22 15:00:00 14.7 6 Sudoeste 11 Sudoeste 0 -- -- 44
2020-11-22 14:00:00 14.3 6 Sudoeste 12 Sudoeste 0 -- -- 45
2020-11-22 13:00:00 14.3 5 Sudoeste 9 Oeste 0 -- -- 42
2020-11-22 12:00:00 13.5 3 Sudoeste 8 Sudoeste 0 -- -- 43
2020-11-22 11:00:00 12.6 7 Sudoeste 27 Este 0 -- -- 41
2020-11-22 10:00:00 10.9 15 Este 25 Este 0 -- -- 43
2020-11-22 09:00:00 7.8 17 Nordeste 31 Nordeste 0 -- -- 53
2020-11-22 08:00:00 7 12 Nordeste 21 Nordeste 0 -- -- 58
2020-11-22 07:00:00 8.1 12 Nordeste 30 Nordeste 0 -- -- 54
2020-11-22 06:00:00 8.4 17 Nordeste 26 Nordeste 0 -- -- 50
2020-11-22 05:00:00 6.9 9 Sudeste 14 Sudeste 0 -- -- 57
2020-11-22 04:00:00 7.1 9 Este 21 Nordeste 0 -- -- 57
2020-11-22 03:00:00 7.9 10 Este 21 Nordeste 0 -- -- 52
2020-11-22 02:00:00 9.2 15 Nordeste 23 Nordeste 0 -- -- 47
2020-11-22 01:00:00 7.3 10 Este 15 Sudeste 0 -- -- 55
2020-11-22 00:00:00 7.7 6 Este 12 Este 0 -- -- 55
2020-11-21 23:00:00 8.3 8 Sudeste 15 Sudeste 0 -- -- 54
2020-11-21 22:00:00 8.4 10 Sudeste 13 Sudeste 0 -- -- 56
2020-11-21 21:00:00 8.7 8 Sudeste 12 Este 0 -- -- 59
2020-11-21 20:00:00 8.5 9 Este 14 Este 0 -- -- 62
2020-11-21 19:00:00 9 10 Sudeste 12 Sudeste 0 -- -- 62
2020-11-21 18:00:00 10.9 5 Este 9 Sudoeste 0 -- -- 57
2020-11-21 17:00:00 15.5 4 Sudoeste 10 Sudoeste 0 -- -- 44
2020-11-21 16:00:00 16.2 8 Sudoeste 13 Oeste 0 -- -- 44
2020-11-21 15:00:00 16.3 8 Sudoeste 12 Sudoeste 0 -- -- 41
2020-11-21 14:00:00 15.9 6 Sudoeste 9 Sudoeste 0 -- -- 39
2020-11-21 13:00:00 14.6 6 Sudoeste 10 Sudoeste 0 -- -- 41
2020-11-21 12:00:00 15.8 0 Calma 7 Este 0 -- -- 30
2020-11-21 11:00:00 12.5 3 Este 12 Sudeste 0 -- -- 39
2020-11-21 10:00:00 9.8 9 Sudeste 15 Sudeste 0 -- -- 37
2020-11-21 09:00:00 7.5 10 Sudeste 14 Sudeste 0 -- -- 44
2020-11-21 08:00:00 6.4 4 Este 18 Nordeste 0 -- -- 51
2020-11-21 07:00:00 13.2 16 Nordeste 39 Nordeste 0 -- -- 24
2020-11-21 06:00:00 11.4 26 Nordeste 37 Nordeste 0 -- -- 33
2020-11-21 05:00:00 10.5 15 Este 27 Este 0 -- -- 38
2020-11-21 04:00:00 8.9 8 Este 23 Nordeste 0 -- -- 46
2020-11-21 03:00:00 11.4 8 Oeste 47 Nordeste 0 -- -- 38
2020-11-21 02:00:00 11.7 20 Nordeste 41 Nordeste 0 -- -- 38
2020-11-21 01:00:00 12.6 22 Este 46 Este 0 -- -- 36
2020-11-21 00:00:00 13.3 25 Este 45 Nordeste 0 -- -- 33
2020-11-20 23:00:00 13.1 26 Este 46 Este 0 -- -- 32
2020-11-20 22:00:00 12.5 34 Este 48 Este 0 -- -- 34
2020-11-20 21:00:00 13.4 24 Este 39 Este 0 -- -- 32
2020-11-20 20:00:00 13.5 27 Este 43 Este 0 -- -- 32
2020-11-20 19:00:00 13.7 25 Este 42 Nordeste 0 -- -- 32
2020-11-20 18:00:00 14.9 18 Este 34 Nordeste 0 -- -- 31
2020-11-20 17:00:00 16.7 18 Este 41 Nordeste 0 -- -- 31
2020-11-20 16:00:00 17.1 19 Nordeste 39 Nordeste 0 -- -- 32
2020-11-20 15:00:00 17.1 19 Este 36 Nordeste 0 -- -- 38
2020-11-20 14:00:00 16.8 24 Nordeste 43 Nordeste 0 -- -- 37
2020-11-20 13:00:00 16.9 17 Nordeste 35 Este 0 -- -- 39
2020-11-20 12:00:00 14.4 23 Nordeste 36 Nordeste 0 -- -- 52
2020-11-20 11:00:00 13.2 23 Este 49 Este 0 -- -- 50
2020-11-20 10:00:00 9.2 34 Este 50 Este 0 -- -- 63
2020-11-20 09:00:00 10 36 Este 58 Nordeste 0 -- -- 61
2020-11-20 08:00:00 9.4 44 Nordeste 51 Nordeste 0 -- -- 65
2020-11-20 07:00:00 11.3 33 Este 47 Este 0 -- -- 65
2020-11-20 06:00:00 8.8 32 Nordeste 46 Nordeste 0 -- -- 73
2020-11-20 05:00:00 11.6 16 Este 36 Este 0 -- -- 64
2020-11-20 04:00:00 9.9 19 Nordeste 47 Este 0 -- -- 71
2020-11-20 03:00:00 11.5 24 Este 50 Este 0 -- -- 67
2020-11-20 02:00:00 12 30 Este 42 Este 0 -- -- 65
2020-11-20 01:00:00 12.8 17 Este 37 Nordeste 0 -- -- 63
2020-11-20 00:00:00 12.4 23 Este 46 Este 0 -- -- 65
2020-11-19 23:00:00 13.5 21 Este 35 Este 0 -- -- 62
2020-11-19 22:00:00 13.2 26 Este 41 Este 0 -- -- 68
2020-11-19 21:00:00 13.9 24 Este 38 Este 0 -- -- 65
2020-11-19 20:00:00 14.2 19 Este 30 Este 0 -- -- 64
2020-11-19 19:00:00 14.7 19 Nordeste 27 Nordeste 0 -- -- 62
2020-11-19 18:00:00 17.5 15 Este 26 Nordeste 0 -- -- 51
2020-11-19 17:00:00 19.2 13 Este 31 Este 0 -- -- 47
2020-11-19 16:00:00 19.9 18 Nordeste 38 Este 0 -- -- 45
2020-11-19 15:00:00 20.2 21 Nordeste 31 Este 0 -- -- 43
2020-11-19 14:00:00 19.7 17 Nordeste 34 Nordeste 0 -- -- 44
2020-11-19 13:00:00 18.7 18 Nordeste 41 Nordeste 0 -- -- 46
2020-11-19 12:00:00 18 18 Este 35 Este 0 -- -- 45
2020-11-19 11:00:00 16.6 20 Este 45 Nordeste 0 -- -- 48
2020-11-19 10:00:00 15.6 20 Este 34 Nordeste 0 -- -- 47
2020-11-19 09:00:00 16 22 Este 35 Nordeste 0 -- -- 44
2020-11-19 08:00:00 15.2 23 Este 38 Este 0 -- -- 47
2020-11-19 07:00:00 15.8 25 Este 40 Este 0 -- -- 46
2020-11-19 06:00:00 13.1 23 Nordeste 38 Nordeste 0 -- -- 55
2020-11-19 05:00:00 15.3 17 Este 33 Nordeste 0 -- -- 47
2020-11-19 04:00:00 15.4 16 Este 36 Nordeste 0 -- -- 48
2020-11-19 03:00:00 14 23 Nordeste 36 Este 0 -- -- 55
2020-11-19 02:00:00 16.2 25 Este 39 Este 0 -- -- 49
2020-11-19 01:00:00 16 22 Este 45 Nordeste 0 -- -- 51
2020-11-19 00:00:00 14.3 19 Nordeste 38 Nordeste 0 -- -- 56
2020-11-18 23:00:00 16.5 15 Este 35 Este 0 -- -- 50
2020-11-18 22:00:00 16.5 15 Este 30 Este 0 -- -- 54
2020-11-18 21:00:00 16.6 20 Este 30 Este 0 -- -- 53
2020-11-18 20:00:00 16.4 11 Este 26 Este 0 -- -- 49
2020-11-18 19:00:00 13 8 Este 13 Sudeste 0 -- -- 60
2020-11-18 18:00:00 13.9 5 Sudeste 7 Oeste 0 -- -- 68
2020-11-18 17:00:00 18.4 2 Sudeste 5 Sudoeste 0 -- -- 55
2020-11-18 16:00:00 19.5 4 Sudoeste 8 Sudoeste 0 -- -- 48
2020-11-18 15:00:00 19.9 4 Sudoeste 10 Oeste 0 -- -- 45
2020-11-18 14:00:00 19.8 4 Sudoeste 10 Sudoeste 0 -- -- 42
2020-11-18 13:00:00 19.9 4 Sudoeste 7 Sudoeste 0 -- -- 41
2020-11-18 12:00:00 18.8 0 Calma 7 Este 0 -- -- 43
2020-11-18 11:00:00 15.6 5 Este 13 Sudeste 0 -- -- 51
2020-11-18 10:00:00 12.4 8 Sudeste 12 Sudeste 0 -- -- 56
2020-11-18 09:00:00 11 9 Sudeste 14 Este 0 -- -- 60
2020-11-18 08:00:00 10.5 10 Este 14 Este 0 -- -- 60
2020-11-18 07:00:00 11.1 9 Este 14 Sudeste 0 -- -- 56
2020-11-18 06:00:00 10.8 8 Este 14 Este 0 -- -- 59
2020-11-18 05:00:00 10.6 10 Este 14 Este 0 -- -- 63
2020-11-18 04:00:00 10.7 10 Sudeste 13 Sudeste 0 -- -- 67
2020-11-18 03:00:00 10.5 9 Este 15 Este 0 -- -- 71
2020-11-18 02:00:00 11 8 Este 14 Sudeste 0 -- -- 67
2020-11-18 01:00:00 10.9 10 Sudeste 14 Sudeste 0 -- -- 65
2020-11-18 00:00:00 11.1 11 Sudeste 13 Sudeste 0 -- -- 68
2020-11-17 23:00:00 11.1 9 Sudeste 12 Sudeste 0 -- -- 63
2020-11-17 22:00:00 10.7 2 Nordeste 5 Norte 0 -- -- 72
2020-11-17 21:00:00 10.8 0 Calma 5 Este 0 -- -- 85
2020-11-17 20:00:00 10.8 4 Este 8 Sudeste 0 -- -- 86
2020-11-17 19:00:00 11.8 4 Este 9 Sur 0 -- -- 79
2020-11-17 18:00:00 15 4 Sudoeste 15 Sur 0 -- -- 70
2020-11-17 17:00:00 16.7 9 Sudoeste 15 Sudoeste 0 -- -- 64
2020-11-17 16:00:00 17.8 6 Sudoeste 12 Sudoeste 0 -- -- 59
2020-11-17 15:00:00 17.6 6 Sudoeste 12 Sudoeste 0 -- -- 53
2020-11-17 14:00:00 17.6 5 Sudoeste 12 Sudoeste 0 -- -- 48
2020-11-17 13:00:00 17.3 2 Sur 10 Sudoeste 0 -- -- 51
2020-11-17 12:00:00 16.9 3 Sudeste 6 Sudeste 0 -- -- 46
2020-11-17 11:00:00 14 4 Este 13 Este 0 -- -- 56
2020-11-17 10:00:00 10.8 6 Este 17 Sudeste 0 -- -- 61
2020-11-17 09:00:00 9.9 10 Sudeste 21 Nordeste 0 -- -- 61
2020-11-17 08:00:00 9.5 10 Este 17 Nordeste 0 -- -- 63
2020-11-17 07:00:00 9.4 11 Sudeste 17 Sudeste 0 -- -- 65
2020-11-17 06:00:00 8.9 12 Sudeste 16 Este 0 -- -- 70
2020-11-17 05:00:00 8.9 10 Sudeste 15 Sudeste 0 -- -- 70
2020-11-17 04:00:00 9.2 8 Sudeste 18 Sudeste 0 -- -- 72
2020-11-17 03:00:00 9.4 10 Sudeste 13 Sudeste 0 -- -- 70
2020-11-17 02:00:00 9.5 8 Sudeste 13 Sudeste 0 -- -- 68
2020-11-17 01:00:00 9.5 6 Este 13 Este 0 -- -- 71
2020-11-17 00:00:00 9.3 6 Sudeste 10 Este 0 -- -- 80
2020-11-16 23:00:00 9.9 6 Sudeste 10 Este 0 -- -- 80
2020-11-16 22:00:00 12.4 5 Sur 34 Este 0 -- -- 73
2020-11-16 21:00:00 13.4 20 Este 40 Este 0 -- -- 65
2020-11-16 20:00:00 13.4 24 Este 36 Este 0 -- -- 67
2020-11-16 19:00:00 11.9 4 Sudeste 12 Este 0 -- -- 84
2020-11-16 18:00:00 12.8 3 Sudeste 7 Sudoeste 0 -- -- 83
2020-11-16 17:00:00 15.4 4 Sudoeste 10 Oeste 0 -- -- 76
2020-11-16 16:00:00 15.8 6 Sudoeste 13 Oeste 0 -- -- 75
2020-11-16 15:00:00 15.4 8 Sudoeste 13 Sudoeste 0 -- -- 75
2020-11-16 14:00:00 15.5 8 Sudoeste 12 Oeste 0 -- -- 74
2020-11-16 13:00:00 14.6 5 Sudoeste 16 Sudoeste 0 -- -- 78
2020-11-16 12:00:00 15.6 13 Este 42 Este 0 -- -- 68
2020-11-16 11:00:00 12.5 23 Nordeste 35 Nordeste 0 -- -- 83
2020-11-16 10:00:00 11.7 21 Nordeste 39 Este 0 -- -- 89
2020-11-16 09:00:00 11.6 26 Este 41 Este 0 -- -- 87
2020-11-16 08:00:00 11.6 29 Este 44 Este 0.2 -- -- 86
2020-11-16 07:00:00 11.4 18 Nordeste 33 Nordeste 0 -- -- 89
2020-11-16 06:00:00 11.7 21 Este 32 Este 0 -- -- 89
2020-11-16 05:00:00 10.7 6 Este 13 Nordeste 0 -- -- 94
2020-11-16 04:00:00 11.1 8 Este 13 Nordeste 0 -- -- 98
2020-11-16 03:00:00 11.6 4 Este 12 Este 0 -- -- 99
2020-11-16 02:00:00 12.4 4 Sudoeste 15 Sur 0 -- -- 100
2020-11-16 01:00:00 12.7 10 Sur 17 Sudoeste 0 -- -- 100
2020-11-16 00:00:00 13.2 7 Sur 15 Sur 0 -- -- 100
2020-11-15 23:00:00 13.2 11 Sudoeste 18 Sudoeste 0 -- -- 100
2020-11-15 22:00:00 13 10 Sudoeste 23 Sudoeste 0 -- -- 100
2020-11-15 21:00:00 13 13 Sudoeste 21 Sudoeste 0 -- -- 100
2020-11-15 20:00:00 12.9 14 Sudoeste 22 Sudoeste 0 -- -- 100
2020-11-15 19:00:00 12.8 15 Sudoeste 24 Sudoeste 0 -- -- 100
2020-11-15 18:00:00 12.8 15 Sudoeste 32 Sudoeste 0 -- -- 100
2020-11-15 17:00:00 12.7 11 Sudoeste 25 Sudoeste 0 -- -- 100
2020-11-15 16:00:00 12.5 16 Sudoeste 28 Sudoeste 0 -- -- 100
2020-11-15 15:00:00 12.4 21 Sudoeste 31 Oeste 0 -- -- 100
2020-11-15 14:00:00 12.3 20 Sudoeste 32 Sudoeste 0.2 -- -- 100
2020-11-15 13:00:00 12 22 Sudoeste 32 Sudoeste 0.4 -- -- 100
2020-11-15 12:00:00 12 22 Sudoeste 32 Sudoeste 0.6 -- -- 99
2020-11-15 11:00:00 11.9 17 Sudoeste 31 Sudoeste 0.2 -- -- 99
2020-11-15 10:00:00 11.9 19 Sudoeste 30 Sudoeste 1.2 -- -- 99
2020-11-15 09:00:00 11.7 15 Sudoeste 27 Sudoeste 1 -- -- 99
2020-11-15 08:00:00 11.4 13 Sudoeste 22 Sudoeste 0.6 -- -- 99
2020-11-15 07:00:00 11.4 13 Sudoeste 20 Sudoeste 2.2 -- -- 99
2020-11-15 06:00:00 11.1 14 Sudoeste 20 Sudoeste 1.2 -- -- 99
2020-11-15 05:00:00 11 10 Sudoeste 15 Sudoeste 0.8 -- -- 99
2020-11-15 04:00:00 10.8 10 Sudoeste 16 Sudoeste 0.6 -- -- 99
2020-11-15 03:00:00 10.7 6 Sudoeste 16 Sudoeste 0 -- -- 99
2020-11-15 02:00:00 10.7 10 Sudoeste 16 Sudoeste 0.2 -- -- 98
2020-11-15 01:00:00 10.6 6 Sudoeste 15 Sudoeste 0 -- -- 98
2020-11-15 00:00:00 10.7 5 Sudoeste 9 Sudoeste 0 -- -- 98
2020-11-14 23:00:00 10.7 3 Sur 9 Sudeste 0 -- -- 98
2020-11-14 22:00:00 10.7 0 Calma 10 Sudeste 0 -- -- 98
2020-11-14 21:00:00 10.7 8 Sudoeste 14 Sudoeste 0 -- -- 98
2020-11-14 20:00:00 10.8 7 Sudoeste 22 Sudoeste 0.6 -- -- 98
2020-11-14 19:00:00 10.8 9 Sudoeste 13 Sudoeste 0.2 -- -- 97
2020-11-14 18:00:00 10.9 0 Calma 14 Sudoeste 0 -- -- 97
2020-11-14 17:00:00 10.9 12 Sudoeste 18 Sudoeste 0 -- -- 96
2020-11-14 16:00:00 11.1 10 Sudoeste 16 Sudoeste 0 -- -- 94
2020-11-14 15:00:00 11.7 8 Sudoeste 17 Sudoeste 0 -- -- 91
2020-11-14 14:00:00 12.2 8 Sudoeste 12 Sudoeste 0 -- -- 86
2020-11-14 13:00:00 12 6 Sudoeste 12 Sur 0 -- -- 87
2020-11-14 12:00:00 11.4 8 Sudoeste 12 Sudoeste 0 -- -- 87
2020-11-14 11:00:00 11 0 Calma 6 Nordeste 0 -- -- 90
2020-11-14 10:00:00 10.2 4 Norte 6 Norte 0.2 -- -- 92
2020-11-14 09:00:00 9.9 3 Sudoeste 5 Sudoeste 0 -- -- 92
2020-11-14 08:00:00 9.6 3 Nordeste 6 Nordeste 0 -- -- 93
2020-11-14 07:00:00 9.9 0 Calma 7 Sudeste 0.6 -- -- 90
2020-11-14 06:00:00 11 5 Sudeste 9 Este 0 -- -- 82
2020-11-14 05:00:00 11.6 3 Sur 13 Sur 0 -- -- 75
2020-11-14 04:00:00 11.4 4 Sur 13 Sudoeste 0 -- -- 74
2020-11-14 03:00:00 10.8 8 Sudoeste 18 Sur 0 -- -- 76
2020-11-14 02:00:00 10.7 6 Sur 18 Sur 0 -- -- 75
2020-11-14 01:00:00 11.2 8 Sur 18 Sur 0 -- -- 71
2020-11-14 00:00:00 11.3 6 Sur 14 Sudoeste 0 -- -- 70
2020-11-13 23:00:00 10.7 7 Sudoeste 14 Sur 0 -- -- 71
2020-11-13 22:00:00 10.6 4 Sudoeste 17 Sudeste 0 -- -- 69
2020-11-13 21:00:00 10.2 4 Sudoeste 8 Sudoeste 0 -- -- 72
2020-11-13 20:00:00 9.8 3 Este 10 Sudeste 0 -- -- 75
2020-11-13 19:00:00 9.6 7 Sudeste 12 Sudeste 0 -- -- 75
2020-11-13 18:00:00 10.5 7 Sudeste 15 Sudoeste 0 -- -- 72
2020-11-13 17:00:00 12.4 13 Sudoeste 22 Sudoeste 0 -- -- 63
2020-11-13 16:00:00 13 7 Sudoeste 18 Sudoeste 0 -- -- 62
2020-11-13 15:00:00 12.5 8 Sur 16 Sudoeste 0 -- -- 61
2020-11-13 14:00:00 12.7 7 Sudoeste 10 Sudoeste 0 -- -- 62
2020-11-13 13:00:00 11.6 5 Sudoeste 16 Sudoeste 0 -- -- 66
2020-11-13 12:00:00 12.8 5 Norte 23 Nordeste 0 -- -- 58
2020-11-13 11:00:00 11.7 12 Este 34 Nordeste 0 -- -- 54
2020-11-13 10:00:00 10.2 14 Nordeste 30 Nordeste 0 -- -- 58
2020-11-13 09:00:00 9 21 Nordeste 31 Nordeste 0 -- -- 62
2020-11-13 08:00:00 8.5 6 Este 21 Nordeste 0 -- -- 67
2020-11-13 07:00:00 8.3 7 Este 10 Sudeste 0 -- -- 74
2020-11-13 06:00:00 8 8 Este 14 Este 0 -- -- 75
2020-11-13 05:00:00 7.8 6 Este 9 Este 0 -- -- 78
2020-11-13 04:00:00 7.7 7 Nordeste 11 Sudeste 0 -- -- 78
2020-11-13 03:00:00 8 7 Nordeste 10 Nordeste 0 -- -- 73
2020-11-13 02:00:00 8.7 3 Este 10 Nordeste 0 -- -- 71
2020-11-13 01:00:00 8.9 6 Nordeste 13 Nordeste 0 -- -- 70
2020-11-13 00:00:00 8.6 7 Este 12 Nordeste 0 -- -- 73
2020-11-12 23:00:00 9 6 Este 13 Nordeste 0 -- -- 73
2020-11-12 22:00:00 9 9 Sudeste 13 Sudeste 0 -- -- 75
2020-11-12 21:00:00 8.6 9 Sudeste 11 Este 0 -- -- 78
2020-11-12 20:00:00 9.1 8 Este 10 Sudeste 0 -- -- 79
2020-11-12 19:00:00 9.6 8 Sudeste 12 Sudeste 0 -- -- 79
2020-11-12 18:00:00 11.3 0 Calma 6 Sudoeste 0 -- -- 71
2020-11-12 17:00:00 13.8 4 Sudoeste 6 Oeste 0 -- -- 57
2020-11-12 16:00:00 14 3 Sudoeste 9 Sudoeste 0 -- -- 55
2020-11-12 15:00:00 13.2 6 Sudoeste 9 Sudoeste 0 -- -- 61
2020-11-12 14:00:00 13 4 Sudoeste 6 Noroeste 0 -- -- 56
2020-11-12 13:00:00 13 5 Sudoeste 11 Sudoeste 0 -- -- 58
2020-11-12 12:00:00 12.7 9 Oeste 19 Nordeste 0 -- -- 57
2020-11-12 11:00:00 11.5 13 Nordeste 26 Nordeste 0 -- -- 59
2020-11-12 10:00:00 10.6 17 Nordeste 26 Nordeste 0 -- -- 57
2020-11-12 09:00:00 9.7 6 Este 21 Nordeste 0 -- -- 61
2020-11-12 08:00:00 9.4 13 Nordeste 25 Este 0 -- -- 60
2020-11-12 07:00:00 10.4 14 Nordeste 24 Nordeste 0 -- -- 57
2020-11-12 06:00:00 9.5 17 Nordeste 27 Nordeste 0 -- -- 63
2020-11-12 05:00:00 9.4 16 Nordeste 22 Nordeste 0 -- -- 66
2020-11-12 04:00:00 9.3 6 Este 12 Nordeste 0 -- -- 71
2020-11-12 03:00:00 9 4 Este 12 Sudeste 0 -- -- 71
2020-11-12 02:00:00 9.3 5 Este 11 Sudeste 0 -- -- 70
2020-11-12 01:00:00 8.9 7 Este 12 Este 0 -- -- 70
2020-11-12 00:00:00 9.5 4 Este 9 Nordeste 0 -- -- 72
2020-11-11 23:00:00 9.4 4 Sudeste 14 Sudeste 0 -- -- 71
2020-11-11 22:00:00 9.6 4 Este 12 Este 0 -- -- 68
2020-11-11 21:00:00 9.8 6 Este 12 Sudeste 0 -- -- 69
2020-11-11 20:00:00 10 6 Sudeste 10 Sudeste 0 -- -- 74
2020-11-11 19:00:00 10.1 6 Sudeste 11 Este 0 -- -- 75
2020-11-11 18:00:00 12.1 3 Sur 15 Sudoeste 0 -- -- 69
2020-11-11 17:00:00 13.9 10 Sudoeste 20 Oeste 0 -- -- 62
2020-11-11 16:00:00 14.4 13 Sudoeste 24 Sudoeste 0 -- -- 60
2020-11-11 15:00:00 14.7 15 Sudoeste 29 Sudoeste 0 -- -- 55
2020-11-11 14:00:00 14.9 20 Sudoeste 33 Oeste 0 -- -- 57
2020-11-11 13:00:00 14.7 19 Oeste 32 Oeste 0 -- -- 55
2020-11-11 12:00:00 14 20 Oeste 31 Oeste 0 -- -- 57
2020-11-11 11:00:00 12.2 11 Sur 17 Sudoeste 0 -- -- 59
2020-11-11 10:00:00 10.5 10 Sudeste 19 Sudeste 0 -- -- 62
2020-11-11 09:00:00 8.5 6 Sudeste 14 Este 0 -- -- 68
2020-11-11 08:00:00 8.1 7 Sudeste 16 Este 0 -- -- 70
2020-11-11 07:00:00 8.1 6 Este 15 Este 0 -- -- 71
2020-11-11 06:00:00 8 8 Este 17 Este 0 -- -- 72
2020-11-11 05:00:00 7.2 10 Este 15 Este 0 -- -- 75
2020-11-11 04:00:00 7 9 Este 19 Nordeste 0 -- -- 78
2020-11-11 03:00:00 8.1 15 Nordeste 21 Nordeste 0 -- -- 80
2020-11-11 02:00:00 7.7 9 Sudeste 22 Nordeste 0 -- -- 86
2020-11-11 01:00:00 8.9 13 Nordeste 21 Nordeste 0 -- -- 81
2020-11-11 00:00:00 8.4 6 Este 21 Nordeste 0 -- -- 87
2020-11-10 23:00:00 8.8 15 Nordeste 23 Nordeste 0 -- -- 82
2020-11-10 22:00:00 8.3 9 Este 14 Nordeste 0 -- -- 91
2020-11-10 21:00:00 8.5 7 Sudeste 12 Este 0 -- -- 90
2020-11-10 20:00:00 9 7 Este 11 Sudeste 0 -- -- 90
2020-11-10 19:00:00 9.6 7 Este 11 Este 0 -- -- 88
2020-11-10 18:00:00 12.7 3 Sudeste 15 Oeste 0 -- -- 78
2020-11-10 17:00:00 14.4 10 Sudoeste 16 Oeste 0 -- -- 73
2020-11-10 16:00:00 15.5 9 Sudoeste 17 Oeste 0 -- -- 69
2020-11-10 15:00:00 15.3 10 Sudoeste 15 Oeste 0 -- -- 66
2020-11-10 14:00:00 14.9 8 Sudoeste 14 Sudoeste 0 -- -- 67
2020-11-10 13:00:00 14.8 12 Sudoeste 14 Sudoeste 0 -- -- 63
2020-11-10 12:00:00 14.2 5 Sudoeste 7 Sudoeste 0 -- -- 66
2020-11-10 11:00:00 12.2 4 Sudeste 23 Nordeste 0 -- -- 68
2020-11-10 10:00:00 9.2 11 Este 27 Nordeste 0 -- -- 78
2020-11-10 09:00:00 8.4 22 Nordeste 28 Nordeste 0 -- -- 79
2020-11-10 08:00:00 7.8 17 Nordeste 27 Nordeste 0 -- -- 81
2020-11-10 07:00:00 8.4 14 Nordeste 37 Nordeste 0 -- -- 80
2020-11-10 06:00:00 8.4 24 Nordeste 32 Nordeste 0 -- -- 84
2020-11-10 05:00:00 8.8 22 Este 32 Nordeste 0 -- -- 84
2020-11-10 04:00:00 9.1 23 Este 33 Nordeste 0 -- -- 79
2020-11-10 03:00:00 7.5 17 Nordeste 30 Nordeste 0 -- -- 86
2020-11-10 02:00:00 7.5 22 Nordeste 35 Nordeste 0 -- -- 88
2020-11-10 01:00:00 8.5 26 Nordeste 35 Nordeste 0 -- -- 85
2020-11-10 00:00:00 10.1 15 Este 28 Este 0 -- -- 82
2020-11-09 23:00:00 9.9 16 Este 28 Este 0 -- -- 84
2020-11-09 22:00:00 9.8 18 Este 27 Este 0 -- -- 87
2020-11-09 21:00:00 9.8 14 Este 23 Este 0 -- -- 87
2020-11-09 20:00:00 8.7 6 Sudeste 12 Sudeste 0 -- -- 92
2020-11-09 19:00:00 9.5 0 Calma 7 Este 0 -- -- 90
2020-11-09 18:00:00 11.8 0 Calma 13 Oeste 0 -- -- 83
2020-11-09 17:00:00 12.9 11 Sudoeste 15 Sudoeste 0 -- -- 76
2020-11-09 16:00:00 11.9 8 Sudoeste 12 Sudoeste 0 -- -- 78
2020-11-09 15:00:00 11.4 6 Sudoeste 17 Sudoeste 0 -- -- 81
2020-11-09 14:00:00 11.7 9 Sudoeste 14 Sudoeste 0 -- -- 79
2020-11-09 13:00:00 11.1 8 Sudoeste 13 Sudoeste 0 -- -- 86
2020-11-09 12:00:00 10.8 6 Sudoeste 11 Sudoeste 0 -- -- 91
2020-11-09 11:00:00 10.5 4 Sudoeste 12 Sudeste 0.2 -- -- 89
2020-11-09 10:00:00 8.9 8 Sudeste 12 Sudeste 0 -- -- 98
2020-11-09 09:00:00 8.8 5 Sudoeste 9 Sudoeste 0 -- -- 99
2020-11-09 08:00:00 8.7 5 Sudoeste 12 Sur 0 -- -- 99
2020-11-09 07:00:00 9.1 8 Sudoeste 15 Sudoeste 0 -- -- 99
2020-11-09 06:00:00 9.3 6 Sudoeste 12 Sudoeste 0 -- -- 99
2020-11-09 05:00:00 9.4 6 Sudoeste 10 Sudoeste 0 -- -- 98
2020-11-09 04:00:00 9.4 0 Calma 8 Sudoeste 0 -- -- 98
2020-11-09 03:00:00 9.5 5 Sudoeste 15 Sudoeste 0 -- -- 98
2020-11-09 02:00:00 9.6 8 Sudoeste 12 Sudoeste 0 -- -- 98
2020-11-09 01:00:00 9.7 4 Sudoeste 12 Sudoeste 0 -- -- 97
2020-11-09 00:00:00 10 9 Sudoeste 14 Sudoeste 0 -- -- 95
2020-11-08 23:00:00 10.1 4 Oeste 12 Sur 0 -- -- 95
2020-11-08 22:00:00 10.2 6 Sudoeste 15 Sur 0 -- -- 95
2020-11-08 21:00:00 10.1 6 Sudoeste 18 Sudoeste 0 -- -- 94
2020-11-08 20:00:00 10 5 Sur 22 Sur 0 -- -- 96
2020-11-08 19:00:00 10 10 Sudoeste 20 Sur 0 -- -- 96
2020-11-08 18:00:00 10.1 7 Sudoeste 22 Sudoeste 0 -- -- 96
2020-11-08 17:00:00 10.4 10 Sur 23 Sur 0 -- -- 93
2020-11-08 16:00:00 10.7 11 Sudoeste 32 Sudoeste 0 -- -- 90
2020-11-08 15:00:00 11.5 19 Sudoeste 36 Oeste 0 -- -- 84
2020-11-08 14:00:00 11.9 16 Oeste 37 Oeste 0 -- -- 82
2020-11-08 13:00:00 11.2 17 Sudoeste 28 Sudoeste 0 -- -- 86
2020-11-08 12:00:00 10.5 15 Sudoeste 31 Sudoeste 0 -- -- 93
2020-11-08 11:00:00 9.8 17 Sudoeste 30 Sudoeste 0 -- -- 93
2020-11-08 10:00:00 9.8 15 Sur 24 Sudoeste 0 -- -- 86
2020-11-08 09:00:00 9.7 9 Sur 23 Oeste 0 -- -- 83
2020-11-08 08:00:00 9.7 16 Oeste 29 Sudoeste 0 -- -- 83
2020-11-08 07:00:00 9.5 12 Sudoeste 23 Sur 0 -- -- 89
2020-11-08 06:00:00 9.3 11 Sur 24 Sudoeste 0 -- -- 94
2020-11-08 05:00:00 9.6 16 Sudoeste 28 Oeste 0 -- -- 92
2020-11-08 04:00:00 9.9 21 Oeste 41 Oeste 0 -- -- 89
2020-11-08 03:00:00 10.2 18 Sudoeste 33 Oeste -- -- -- 87
2020-11-08 02:00:00 10.5 19 Oeste 37 Oeste 0 -- -- 84
2020-11-08 01:00:00 10.6 16 Sudoeste 30 Sudoeste 0 -- -- 83
2020-11-08 00:00:00 10.2 12 Sudoeste 22 Sur 0 -- -- 86
2020-11-07 23:00:00 10.1 10 Sur 19 Sudoeste 0 -- -- 87
2020-11-07 22:00:00 9.7 7 Sudoeste 15 Sudoeste 0 -- -- 90
2020-11-07 21:00:00 9.8 6 Sudoeste 16 Sur 0 -- -- 89
2020-11-07 20:00:00 9.9 10 Sur 16 Sur 0 -- -- 88
2020-11-07 19:00:00 9.7 6 Sur 14 Sur 0 -- -- 90
2020-11-07 18:00:00 9.9 10 Sudoeste 19 Sudoeste 0 -- -- 93
2020-11-07 17:00:00 10.1 12 Sudoeste 26 Sudoeste 0 -- -- 91
2020-11-07 16:00:00 10.4 17 Sudoeste 26 Sudoeste 0 -- -- 89
2020-11-07 15:00:00 10.8 17 Sudoeste 31 Sudoeste 0 -- -- 90
2020-11-07 14:00:00 9.8 18 Sudoeste 31 Sudoeste 0 -- -- 98
2020-11-07 13:00:00 9.7 19 Oeste 35 Sudoeste 0 -- -- 99
2020-11-07 12:00:00 9 19 Sudoeste 34 Sudoeste 1.2 -- -- 99
2020-11-07 11:00:00 8.9 22 Sudoeste 36 Sudoeste 1.2 -- -- 98
2020-11-07 10:00:00 8.6 16 Sudoeste 25 Sudoeste 1.4 -- -- 98
2020-11-07 09:00:00 8.6 13 Sudoeste 19 Sudoeste 0.8 -- -- 97
2020-11-07 08:00:00 8.7 12 Sudoeste 23 Sudoeste 2.8 -- -- 96
2020-11-07 07:00:00 9.2 10 Sudoeste 27 Sudoeste 0.4 -- -- 94
2020-11-07 06:00:00 9.5 7 Sudoeste 21 Oeste 0.6 -- -- 93
2020-11-07 05:00:00 9.5 13 Sudoeste 23 Sudoeste 0.6 -- -- 92
2020-11-07 04:00:00 9.4 10 Sudoeste 29 Sudoeste 3.2 -- -- 92
2020-11-07 03:00:00 10 10 Oeste 27 Oeste 10 -- -- 90
2020-11-07 02:00:00 9.9 6 Sur 20 Sudoeste 9.8 -- -- 93
2020-11-07 01:00:00 10.8 10 Sur 38 Sudoeste 5.8 -- -- 85
2020-11-07 00:00:00 10.9 22 Sudoeste 53 Sudoeste 8 -- -- 84
2020-11-06 23:00:00 11.3 13 Sudoeste 46 Sudoeste 0.6 -- -- 85
2020-11-06 22:00:00 9.9 9 Sudoeste 40 Oeste 4.2 -- -- 94
2020-11-06 21:00:00 9.6 14 Sur 59 Sudoeste 5.4 -- -- 93
2020-11-06 20:00:00 12.4 35 Sudoeste 75 Sudoeste 0 -- -- 83
2020-11-06 19:00:00 13.5 9 Sudoeste 63 Oeste 2.2 -- -- 73
2020-11-06 18:00:00 12.3 11 Sudoeste 35 Sudeste 4.8 -- -- 86
2020-11-06 17:00:00 14.4 10 Oeste 40 Sudoeste 0.4 -- -- 69
2020-11-06 16:00:00 16.2 12 Noroeste 45 Oeste 0 -- -- 58
2020-11-06 15:00:00 16.5 12 Sudoeste 53 Sudoeste 0 -- -- 51
2020-11-06 14:00:00 17.1 12 Oeste 49 Oeste 0 -- -- 51
2020-11-06 13:00:00 17.1 14 Sudoeste 50 Noroeste 0 -- -- 47
2020-11-06 12:00:00 17.1 11 Sudeste 48 Este 0 -- -- 47
2020-11-06 11:00:00 16.8 12 Nordeste 44 Sudoeste 0 -- -- 47
2020-11-06 10:00:00 16.1 12 Nordeste 56 Sudeste 0 -- -- 50
2020-11-06 09:00:00 11.3 12 Nordeste 19 Sudeste 0 -- -- 78
2020-11-06 08:00:00 9.9 4 Sudeste 15 Nordeste 1 -- -- 90
2020-11-06 07:00:00 11 12 Sudoeste 38 Oeste 1.6 -- -- 85
2020-11-06 06:00:00 11.6 9 Sudoeste 33 Noroeste 0.8 -- -- 78
2020-11-06 05:00:00 11.9 16 Oeste 55 Oeste 1.4 -- -- 76
2020-11-06 04:00:00 13.1 16 Oeste 41 Sudoeste 1.4 -- -- 66
2020-11-06 03:00:00 14.4 24 Oeste 44 Sudoeste 0 -- -- 61
2020-11-06 02:00:00 14.6 12 Sur 27 Sudoeste 0 -- -- 56
2020-11-06 01:00:00 14.1 8 Sudeste 35 Este 0 -- -- 55
2020-11-06 00:00:00 12.9 6 Norte 31 Sudeste 0 -- -- 69
2020-11-05 23:00:00 12 4 Este 36 Sudeste 0 -- -- 72
2020-11-05 22:00:00 12.6 9 Nordeste 24 Este 0 -- -- 69
2020-11-05 21:00:00 10.8 7 Este 51 Sudoeste 0 -- -- 78
2020-11-05 20:00:00 9.7 19 Nordeste 33 Sur 1 -- -- 81
2020-11-05 19:00:00 8.7 8 Noroeste 36 Noroeste 5 -- -- 89
2020-11-05 18:00:00 8 8 Sudoeste 61 Oeste 9.2 -- -- 91
2020-11-05 17:00:00 12 13 Nordeste 40 Este 2 -- -- 80
2020-11-05 16:00:00 11.7 8 Nordeste 19 Nordeste 1.8 -- -- 87
2020-11-05 15:00:00 12.2 12 Sudeste 33 Sur 3.2 -- -- 77
2020-11-05 14:00:00 12.6 10 Sudeste 54 Sudeste 2 -- -- 79
2020-11-05 13:00:00 12.6 21 Sur 55 Sur 4.2 -- -- 76
2020-11-05 12:00:00 10.9 9 Noroeste 31 Sur 7 -- -- 86
2020-11-05 11:00:00 11.4 14 Nordeste 41 Este 4.2 -- -- 81
2020-11-05 10:00:00 11.1 13 Norte 62 Este 4.2 -- -- 84
2020-11-05 09:00:00 10.9 9 Noroeste 27 Sudoeste 3.8 -- -- 80
2020-11-05 08:00:00 10.9 9 Nordeste 48 Sudoeste 4.4 -- -- 79
2020-11-05 07:00:00 11.5 17 Nordeste 48 Este 2 -- -- 73
2020-11-05 06:00:00 10.6 18 Nordeste 44 Este 2 -- -- 79
2020-11-05 05:00:00 10.9 7 Este 31 Nordeste 3 -- -- 74
2020-11-05 04:00:00 10.2 15 Nordeste 30 Este 1.8 -- -- 83
2020-11-05 03:00:00 9.3 15 Este 29 Este 2.4 -- -- 86
2020-11-05 02:00:00 9.2 16 Nordeste 26 Nordeste 0.4 -- -- 83
2020-11-05 01:00:00 9 14 Nordeste 37 Este 0 -- -- 88
2020-11-05 00:00:00 8.3 23 Este 35 Este 0.4 -- -- 86
2020-11-04 23:00:00 7.8 21 Este 33 Este 0.4 -- -- 86
2020-11-04 22:00:00 8 17 Este 26 Este 1.8 -- -- 83
2020-11-04 21:00:00 7.9 4 Este 29 Este 1 -- -- 88
2020-11-04 20:00:00 8.6 19 Este 41 Este 0 -- -- 76
2020-11-04 19:00:00 7.1 24 Este 39 Este 0.2 -- -- 85
2020-11-04 18:00:00 7 23 Este 41 Este 0 -- -- 84
2020-11-04 17:00:00 6.2 21 Este 45 Este 1.2 -- -- 87
2020-11-04 16:00:00 6.9 22 Nordeste 40 Nordeste 0 -- -- 82
2020-11-04 15:00:00 6.9 25 Este 42 Este 0.2 -- -- 85
2020-11-04 14:00:00 6.9 26 Este 41 Este 0.2 -- -- 84
2020-11-04 13:00:00 6.2 22 Este 39 Este 0.6 -- -- 87
2020-11-04 12:00:00 5.9 28 Este 41 Este 0 -- -- 86
2020-11-04 11:00:00 6.1 26 Nordeste 40 Norte 0 -- -- 86
2020-11-04 10:00:00 5.8 23 Nordeste 37 Nordeste 0 -- -- 88
2020-11-04 09:00:00 5.6 22 Nordeste 35 Nordeste 0 -- -- 90
2020-11-04 08:00:00 5.8 22 Nordeste 38 Nordeste 0 -- -- 90
2020-11-04 07:00:00 6.3 23 Nordeste 36 Nordeste 0 -- -- 90
2020-11-04 06:00:00 7.3 22 Este 35 Este 0 -- -- 89
2020-11-04 05:00:00 7.8 21 Nordeste 34 Este 0 -- -- 88
2020-11-04 04:00:00 8.5 21 Nordeste 33 Nordeste 0 -- -- 85
2020-11-04 03:00:00 9.1 19 Este 35 Nordeste 0 -- -- 84
2020-11-04 02:00:00 9.2 18 Este 32 Nordeste 0 -- -- 86
2020-11-04 01:00:00 9.3 16 Este 32 Este 0 -- -- 86
2020-11-04 00:00:00 9.5 17 Este 30 Este 0 -- -- 85
2020-11-03 23:00:00 9.9 18 Este 32 Este 0 -- -- 82
2020-11-03 22:00:00 10.1 18 Este 37 Este 0 -- -- 81
2020-11-03 21:00:00 10.3 24 Este 38 Este 0 -- -- 80
2020-11-03 20:00:00 10.3 24 Este 40 Este 0 -- -- 82
2020-11-03 19:00:00 10.2 22 Este 35 Este 0 -- -- 87
2020-11-03 18:00:00 10.6 21 Este 38 Nordeste 0 -- -- 85
2020-11-03 17:00:00 11.8 20 Nordeste 50 Nordeste 0 -- -- 81
2020-11-03 16:00:00 12.6 25 Nordeste 49 Nordeste 0 -- -- 78
2020-11-03 15:00:00 12.5 28 Nordeste 44 Nordeste 0 -- -- 78
2020-11-03 14:00:00 11.9 30 Nordeste 43 Nordeste 0 -- -- 79
2020-11-03 13:00:00 12.4 28 Nordeste 44 Nordeste 0 -- -- 78
2020-11-03 12:00:00 11.8 25 Nordeste 43 Nordeste 0 -- -- 82
2020-11-03 11:00:00 10.2 27 Nordeste 44 Nordeste 0 -- -- 87
2020-11-03 10:00:00 9.7 28 Nordeste 46 Este 0 -- -- 88
2020-11-03 09:00:00 10.4 22 Nordeste 41 Nordeste 0 -- -- 88
2020-11-03 08:00:00 10.7 21 Nordeste 56 Nordeste 0 -- -- 90
2020-11-03 07:00:00 11.8 28 Este 46 Este 0 -- -- 89
2020-11-03 06:00:00 13.5 23 Este 39 Este 0 -- -- 82
2020-11-03 05:00:00 14.4 20 Este 37 Este 0 -- -- 78
2020-11-03 04:00:00 14.2 24 Este 35 Este 0 -- -- 78
2020-11-03 03:00:00 13.5 19 Este 35 Nordeste 0 -- -- 81
2020-11-03 02:00:00 12.8 22 Nordeste 36 Nordeste 0 -- -- 84
2020-11-03 01:00:00 13.3 19 Nordeste 33 Nordeste 0 -- -- 81
2020-11-03 00:00:00 14.3 17 Este 32 Nordeste 0 -- -- 77
2020-11-02 23:00:00 13.9 19 Este 32 Nordeste 0 -- -- 80
2020-11-02 22:00:00 14.3 18 Este 36 Este 0 -- -- 79
2020-11-02 21:00:00 14.2 20 Este 33 Nordeste 0 -- -- 80
2020-11-02 20:00:00 14.5 17 Nordeste 28 Nordeste 0 -- -- 79
2020-11-02 19:00:00 15.1 10 Este 23 Este 0 -- -- 74
2020-11-02 18:00:00 14.1 2 Este 5 Sudeste 0 -- -- 85
2020-11-02 17:00:00 14.8 3 Noroeste 11 Sudoeste 0 -- -- 85
2020-11-02 16:00:00 16.5 6 Sudoeste 12 Oeste 0 -- -- 72
2020-11-02 15:00:00 17.3 6 Sudoeste 10 Sudoeste 0 -- -- 65
2020-11-02 14:00:00 16.9 7 Oeste 10 Oeste 0 -- -- 70
2020-11-02 13:00:00 16.1 2 Sudoeste 19 Nordeste 0 -- -- 72
2020-11-02 12:00:00 15.7 15 Nordeste 32 Nordeste 0 -- -- 73
2020-11-02 11:00:00 14.6 19 Nordeste 30 Nordeste 0 -- -- 74
2020-11-02 10:00:00 14.7 12 Nordeste 23 Nordeste 0 -- -- 73
2020-11-02 09:00:00 13.5 11 Nordeste 18 Nordeste 0 -- -- 77
2020-11-02 08:00:00 12.7 6 Este 10 Este 0 -- -- 76
2020-11-02 07:00:00 12.9 6 Este 11 Este 0 -- -- 72
2020-11-02 06:00:00 13.1 5 Este 10 Sudeste 0 -- -- 74
2020-11-02 05:00:00 13.2 8 Sudeste 10 Sudeste 0 -- -- 77
2020-11-02 04:00:00 13.1 4 Este 7 Este 0 -- -- 78
2020-11-02 03:00:00 13.3 4 Este 8 Este 0 -- -- 78
2020-11-02 02:00:00 13.3 3 Este 5 Este 0 -- -- 77
2020-11-02 01:00:00 13.9 6 Sudeste 8 Este 0 -- -- 74
2020-11-02 00:00:00 13.7 4 Sudeste 8 Sudeste 0 -- -- 75
2020-11-01 23:00:00 13.8 6 Sudeste 11 Sudeste 0 -- -- 75
2020-11-01 22:00:00 13.7 5 Sudeste 8 Este 0 -- -- 75
2020-11-01 21:00:00 13.8 4 Este 9 Este 0 -- -- 77
2020-11-01 20:00:00 13.7 0 Calma 8 Sudeste 0 -- -- 81
2020-11-01 19:00:00 14 4 Sudeste 6 Sudeste 0 -- -- 83
2020-11-01 18:00:00 15.7 0 Calma 9 Sudoeste 0 -- -- 79
2020-11-01 17:00:00 16.9 5 Sudoeste 12 Sudoeste 0 -- -- 74
2020-11-01 16:00:00 17.6 7 Sudoeste 13 Oeste 0 -- -- 64
2020-11-01 15:00:00 18.3 9 Sudoeste 17 Sudoeste 0 -- -- 54
2020-11-01 14:00:00 18.6 9 Sudoeste 13 Sudoeste 0 -- -- 48
2020-11-01 13:00:00 17.9 6 Sudoeste 10 Oeste 0 -- -- 50
2020-11-01 12:00:00 16.6 4 Oeste 12 Sudoeste 0 -- -- 46
2020-11-01 11:00:00 16.4 0 Calma 17 Nordeste 0 -- -- 49
2020-11-01 10:00:00 14 5 Sudeste 13 Sudeste 0 -- -- 55
2020-11-01 09:00:00 12.8 8 Este 22 Nordeste 0 -- -- 55
2020-11-01 08:00:00 11.6 8 Este 25 Nordeste 0 -- -- 52
2020-11-01 07:00:00 11.7 9 Este 18 Nordeste 0 -- -- 55
2020-11-01 06:00:00 11.7 9 Este 16 Este 0 -- -- 55
2020-11-01 05:00:00 11.1 9 Este 13 Este 0 -- -- 60
2020-11-01 04:00:00 12 6 Este 23 Nordeste 0 -- -- 56
2020-11-01 03:00:00 13.1 18 Nordeste 27 Nordeste 0 -- -- 60
2020-11-01 02:00:00 13.3 16 Nordeste 27 Nordeste 0 -- -- 60
2020-11-01 01:00:00 12.4 14 Nordeste 33 Nordeste 0 -- -- 65
2020-11-01 00:00:00 14.8 12 Este 24 Nordeste 0 -- -- 58
2020-10-31 23:00:00 14.6 12 Este 25 Este 0 -- -- 60
2020-10-31 22:00:00 13.7 15 Nordeste 22 Nordeste 0 -- -- 63
2020-10-31 21:00:00 12.5 6 Este 22 Nordeste 0 -- -- 70
2020-10-31 20:00:00 12.5 8 Este 13 Este 0 -- -- 77
2020-10-31 19:00:00 13.3 9 Este 12 Sudeste 0 -- -- 76
2020-10-31 18:00:00 17.3 3 Sur 13 Sudoeste 0 -- -- 64
2020-10-31 17:00:00 19 9 Sudoeste 17 Sudoeste 0 -- -- 56
2020-10-31 16:00:00 19.6 11 Sudoeste 16 Sudoeste 0 -- -- 53
2020-10-31 15:00:00 19.7 6 Sudoeste 17 Sudoeste 0 -- -- 54
2020-10-31 14:00:00 18.5 5 Oeste 16 Sudoeste 0 -- -- 60
2020-10-31 13:00:00 18.1 9 Sudoeste 23 Sudoeste 0 -- -- 62
2020-10-31 12:00:00 19.3 4 Sur 12 Sudoeste 0 -- -- 53
2020-10-31 11:00:00 17.5 5 Sur 13 Este 0 -- -- 57
2020-10-31 10:00:00 14 8 Sudeste 13 Este 0 -- -- 65
2020-10-31 09:00:00 12.7 4 Este 14 Sudeste 0 -- -- 70
2020-10-31 08:00:00 12.4 6 Este 15 Este 0 -- -- 71
2020-10-31 07:00:00 12.5 12 Sudeste 18 Sudeste 0 -- -- 71
2020-10-31 06:00:00 12.3 8 Sudeste 15 Sudeste 0 -- -- 72
2020-10-31 05:00:00 11.8 7 Este 13 Sudeste 0 -- -- 73
2020-10-31 04:00:00 12.1 8 Este 14 Sudeste 0 -- -- 71
2020-10-31 03:00:00 12.7 9 Sudeste 13 Sudeste 0 -- -- 70
2020-10-31 02:00:00 11.6 6 Sudeste 10 Sudeste 0 -- -- 73
2020-10-31 01:00:00 12.3 9 Sudeste 13 Sudeste 0 -- -- 67
2020-10-31 00:00:00 12.5 6 Este 15 Sudeste 0 -- -- 64
2020-10-30 23:00:00 11.9 9 Este 12 Este 0 -- -- 64
2020-10-30 22:00:00 12 9 Este 13 Sudeste 0 -- -- 67
2020-10-30 21:00:00 12.3 8 Este 12 Sudeste 0 -- -- 72
2020-10-30 20:00:00 12.5 9 Este 12 Este 0 -- -- 75
2020-10-30 19:00:00 13.3 10 Este 12 Este 0 -- -- 75
2020-10-30 18:00:00 17.1 0 Calma 13 Sudoeste 0 -- -- 65
2020-10-30 17:00:00 19.5 6 Sudoeste 17 Oeste 0 -- -- 56
2020-10-30 16:00:00 19.8 13 Sudoeste 19 Sudoeste 0 -- -- 52
2020-10-30 15:00:00 19.4 12 Sudoeste 19 Sudoeste 0 -- -- 54
2020-10-30 14:00:00 19.2 13 Sudoeste 18 Sudoeste 0 -- -- 58
2020-10-30 13:00:00 19 10 Sudoeste 15 Sudoeste 0 -- -- 58
2020-10-30 12:00:00 18.3 8 Sudoeste 11 Sudoeste 0 -- -- 56
2020-10-30 11:00:00 17.1 5 Sudoeste 9 Este 0 -- -- 61
2020-10-30 10:00:00 13.7 4 Este 10 Sudeste 0 -- -- 71
2020-10-30 09:00:00 11.1 5 Este 11 Nordeste 0 -- -- 74
2020-10-30 08:00:00 10.9 7 Este 12 Sudeste 0 -- -- 74
2020-10-30 07:00:00 10.8 6 Este 12 Este 0 -- -- 77
2020-10-30 06:00:00 10.9 7 Este 12 Este 0 -- -- 77
2020-10-30 05:00:00 11.5 6 Este 11 Sudeste 0 -- -- 76
2020-10-30 04:00:00 12.1 5 Nordeste 11 Sudeste 0 -- -- 73
2020-10-30 03:00:00 11.7 6 Este 12 Este 0 -- -- 72
2020-10-30 02:00:00 11.8 7 Este 13 Sudeste 0 -- -- 70
2020-10-30 01:00:00 11.4 8 Sudeste 14 Este 0 -- -- 72
2020-10-30 00:00:00 11.9 9 Sudeste 14 Este 0 -- -- 71
2020-10-29 23:00:00 11.7 11 Sudeste 14 Este 0 -- -- 73
2020-10-29 22:00:00 11.1 5 Sudeste 10 Este 0 -- -- 79
2020-10-29 21:00:00 11.1 5 Este 9 Este 0 -- -- 81
2020-10-29 20:00:00 11.2 4 Este 9 Este 0 -- -- 85
2020-10-29 19:00:00 11.9 2 Este 6 Este 0 -- -- 85
2020-10-29 18:00:00 16.1 4 Sudoeste 13 Sudoeste 0 -- -- 73
2020-10-29 17:00:00 16.9 10 Sudoeste 20 Sudoeste 0 -- -- 68
2020-10-29 16:00:00 17.3 14 Sudoeste 24 Sudoeste 0 -- -- 63
2020-10-29 15:00:00 17.1 13 Sudoeste 18 Sudoeste 0 -- -- 60
2020-10-29 14:00:00 16.3 10 Sudoeste 14 Sudoeste 0 -- -- 69
2020-10-29 13:00:00 15 8 Sudoeste 13 Sudoeste 0 -- -- 75
2020-10-29 12:00:00 13.6 8 Sur 12 Sur 0 -- -- 74
2020-10-29 11:00:00 12.2 3 Sudoeste 6 Sudoeste 0 -- -- 82
2020-10-29 10:00:00 9.9 4 Sudeste 9 Sudeste 0 -- -- 88
2020-10-29 09:00:00 9.1 5 Sudeste 10 Sudeste 0 -- -- 90
2020-10-29 08:00:00 7.7 4 Este 10 Sudeste 0 -- -- 95
2020-10-29 07:00:00 7.1 5 Este 11 Este 0 -- -- 94
2020-10-29 06:00:00 7.1 7 Este 13 Nordeste 0 -- -- 93
2020-10-29 05:00:00 7.2 7 Este 11 Este 0 -- -- 93
2020-10-29 04:00:00 7.3 5 Este 10 Este 0 -- -- 93
2020-10-29 03:00:00 7.3 7 Sudeste 13 Este 0 -- -- 92
2020-10-29 02:00:00 7.7 6 Este 24 Nordeste 0 -- -- 91
2020-10-29 01:00:00 8 12 Este 24 Nordeste 0 -- -- 93
2020-10-29 00:00:00 7.7 4 Este 12 Este 0 -- -- 93
2020-10-28 23:00:00 7.8 7 Sudeste 13 Este 0 -- -- 93
2020-10-28 22:00:00 8.5 7 Este 13 Nordeste 0 -- -- 92
2020-10-28 21:00:00 8.4 8 Este 13 Nordeste 0 -- -- 93
2020-10-28 20:00:00 8.9 8 Este 13 Sudeste 0 -- -- 93
2020-10-28 19:00:00 10.6 4 Este 8 Sudeste 0 -- -- 94
2020-10-28 18:00:00 11.8 0 Calma 17 Sudoeste 0 -- -- 96
2020-10-28 17:00:00 12.2 12 Sudoeste 19 Sudoeste 0 -- -- 95
2020-10-28 16:00:00 12.3 10 Sudoeste 22 Sudoeste 0 -- -- 98
2020-10-28 15:00:00 12.1 8 Sudoeste 19 Sudoeste 0 -- -- 98
2020-10-28 14:00:00 11.3 13 Sudoeste 23 Sudoeste 0 -- -- 98
2020-10-28 13:00:00 10.9 13 Sudoeste 20 Sudoeste 0.2 -- -- 98
2020-10-28 12:00:00 10.6 10 Sudoeste 15 Sudoeste 0 -- -- 98
2020-10-28 11:00:00 10.1 5 Sudoeste 9 Sur 0 -- -- 98
2020-10-28 10:00:00 9.5 3 Sudoeste 4 Oeste 0.6 -- -- 97
2020-10-28 09:00:00 9.1 0 Calma 5 Norte 0.2 -- -- 97
2020-10-28 08:00:00 8.3 2 Sudeste 6 Nordeste 0 -- -- 97
2020-10-28 07:00:00 7.9 0 Calma 6 Sudeste 0 -- -- 97
2020-10-28 06:00:00 8 4 Este 8 Este 0 -- -- 97
2020-10-28 05:00:00 8.1 4 Este 8 Norte 0.2 -- -- 97
2020-10-28 04:00:00 7.7 3 Sudeste 8 Sudeste 0 -- -- 96
2020-10-28 03:00:00 7.6 4 Sudeste 9 Nordeste 0 -- -- 96
2020-10-28 02:00:00 7.2 6 Este 12 Nordeste 0 -- -- 96
2020-10-28 01:00:00 7.3 5 Nordeste 12 Sudeste 0 -- -- 95
2020-10-28 00:00:00 7.1 3 Este 10 Norte 0 -- -- 95